CDT,Max TemperatureF,Mean TemperatureF,Min TemperatureF,Max Dew PointF,MeanDew PointF,Min DewpointF,Max Humidity, Mean Humidity, Min Humidity, Max Sea Level PressureIn, Mean Sea Level PressureIn, Min Sea Level PressureIn, Max VisibilityMiles, Mean VisibilityMiles, Min VisibilityMiles, Max Wind SpeedMPH, Mean Wind SpeedMPH, Max Gust SpeedMPH,PrecipitationIn, CloudCover, Events, WindDirDegrees
2013-3-1,24,14,3,10,6,-6,85,67,50,30.42,30.38,30.32,10,10,10,12,7,,0.00,2,,67
2013-3-2,24,11,-2,14,6,-9,100,73,54,30.33,30.21,30.07,10,9,0,15,6,,0.00,4,,150
2013-3-3,30,24,17,16,11,7,68,57,43,30.07,29.97,29.90,10,10,10,17,9,,0.00,7,,121
2013-3-4,26,24,21,21,17,10,93,76,51,30.07,29.94,29.89,10,5,0,25,17,30,0.00,8,,95
2013-3-5,23,20,17,19,16,12,93,81,68,30.38,30.25,30.07,10,6,1,16,11,,0.00,7,,21
2013-3-6,21,14,6,16,11,0,93,78,63,30.43,30.38,30.30,10,10,3,10,2,,0.00,5,,71
2013-3-7,28,17,6,18,10,1,92,75,59,30.33,30.25,30.19,10,10,10,16,10,,0.00,1,,113
2013-3-8,28,24,21,25,20,14,93,84,74,30.21,30.17,30.07,10,6,4,14,9,,0.00,7,,195
2013-3-9,32,26,21,27,23,18,93,83,74,30.06,29.89,29.80,10,6,2,18,9,,0.01,8,,7
2013-3-10,23,16,8,18,12,1,86,76,59,30.17,30.10,29.97,10,10,10,21,15,25,0.00,4,,335
2013-3-11,26,16,6,14,7,-2,86,72,55,30.06,29.89,29.80,10,10,10,10,5,,0.00,3,,6
2013-3-12,21,14,6,16,10,1,92,79,73,30.26,30.06,29.86,10,10,7,22,12,,0.00,2,,313
2013-3-13,21,8,-5,16,4,-9,100,80,63,30.33,30.25,30.10,10,10,9,12,6,,0.00,2,,186
2013-3-14,28,24,19,25,20,16,93,83,74,30.10,30.06,30.03,10,9,1,14,9,,0.01,4,,198
2013-3-15,21,14,6,16,9,0,85,76,63,30.11,30.06,30.00,10,7,0,18,14,22,0.00,6,,23
2013-3-16,6,0,-7,1,-5,-13,100,79,66,30.27,30.19,30.11,10,10,9,17,8,,0.00,2,,308
2013-3-17,17,2,-14,16,-2,-18,100,76,57,30.26,30.01,29.67,10,8,1,21,10,25,0.00,5,,115
2013-3-18,23,14,6,21,12,0,93,85,72,29.88,29.60,29.43,10,2,0,34,17,41,0.00,6,,341
2013-3-19,8,2,-4,0,-5,-11,85,70,56,30.24,30.09,29.88,10,10,10,22,15,26,0.00,0,,304
2013-3-20,10,4,-2,1,-4,-9,92,71,57,30.27,30.21,30.15,10,10,10,21,14,24,0.00,0,,309
2013-3-21,19,4,-11,9,-2,-17,100,75,58,30.15,30.11,30.08,10,10,9,9,2,,0.00,0,,315
2013-3-22,26,13,0,12,5,-8,100,72,51,30.11,30.09,30.06,10,10,10,12,5,,0.00,0,,13
2013-3-23,26,14,3,18,11,-2,92,78,63,30.17,30.14,30.11,10,10,10,9,4,,0.00,4,,303
2013-3-24,28,24,19,21,17,12,86,72,51,30.20,30.16,30.13,10,10,10,15,8,18,0.01,8,,357
2013-3-25,26,19,10,18,15,7,92,75,64,30.30,30.26,30.20,10,10,10,18,12,23,0.00,4,,328
2013-3-26,24,12,1,16,9,0,100,80,64,30.32,30.30,30.28,10,10,10,9,4,,0.00,0,,300
2013-3-27,39,20,1,19,11,-2,100,72,42,30.32,30.30,30.28,10,10,3,7,1,,0.01,0,,88
2013-3-28,42,28,15,27,18,9,93,66,39,30.29,30.26,30.22,10,10,7,10,4,,0.00,4,,119
2013-3-29,42,28,15,28,22,10,100,78,57,30.24,30.14,30.00,10,7,0,0,0,,0.00,1,,-1
2013-3-30,35,32,28,28,27,25,93,81,70,29.98,29.91,29.84,10,7,2,13,4,,0.00,4,,287
2013-3-31,32,22,12,28,15,7,93,73,59,30.17,29.99,29.81,10,10,4,23,15,29,0.00,3,,313